Time;durP1;ratioP1;P1;durP2;ratioP2;P2;SDS_P1;SDS_P2;PMS_P1;PMS_P2;Temp;Humidity;BMP_temperature;BMP_pressure;BME280_temperature;BME280_humidity;BME280_pressure;Samples;Min_cycle;Max_cycle;Signal;HPM_P1;HPM_P2
2023/04/30 00:00:48;;;;;;;5.93;5.43;;;13.80;99.90;;;;;;4885222;29;20246;-61
2023/04/30 00:03:14;;;;;;;6.37;5.43;;;13.70;99.90;;;;;;4892218;29;20186;-61
2023/04/30 00:05:39;;;;;;;6.10;5.50;;;13.70;99.90;;;;;;4889679;29;20530;-61
2023/04/30 00:08:05;;;;;;;7.50;5.50;;;13.80;99.90;;;;;;4889770;29;20261;-61
2023/04/30 00:10:31;;;;;;;6.50;5.80;;;13.80;99.90;;;;;;4887826;29;20250;-61
2023/04/30 00:12:56;;;;;;;6.77;5.87;;;13.90;99.90;;;;;;4886741;29;20207;-61
2023/04/30 00:15:22;;;;;;;6.60;6.00;;;13.70;99.90;;;;;;4886492;29;20191;-61
2023/04/30 00:17:47;;;;;;;6.60;6.07;;;13.60;99.90;;;;;;4888966;29;20913;-61
2023/04/30 00:20:13;;;;;;;6.57;5.97;;;13.40;99.90;;;;;;4887274;29;20214;-61
2023/04/30 00:22:39;;;;;;;6.35;5.75;;;13.40;99.90;;;;;;4885681;29;20210;-61
2023/04/30 00:25:05;;;;;;;5.70;5.20;;;13.50;99.90;;;;;;4890707;29;20223;-61
2023/04/30 00:27:31;;;;;;;5.78;5.25;;;13.50;99.90;;;;;;4887720;29;20188;-61
2023/04/30 00:29:57;;;;;;;8.07;5.43;;;13.60;99.90;;;;;;4883909;29;20203;-61
2023/04/30 00:32:22;;;;;;;6.47;5.97;;;13.50;99.90;;;;;;4900003;29;20203;-61
2023/04/30 00:34:48;;;;;;;6.00;5.50;;;13.70;99.90;;;;;;4885633;29;20290;-61
2023/04/30 00:37:14;;;;;;;5.77;5.27;;;13.40;99.90;;;;;;4883581;29;20661;-61
2023/04/30 00:39:39;;;;;;;6.57;5.97;;;13.40;99.90;;;;;;4886173;29;20218;-61
2023/04/30 00:42:05;;;;;;;6.57;5.50;;;13.40;99.90;;;;;;4884764;29;20203;-61
2023/04/30 00:44:30;;;;;;;7.10;6.23;;;13.50;99.90;;;;;;4889458;29;20688;-61
2023/04/30 00:46:56;;;;;;;6.23;5.73;;;13.30;99.90;;;;;;4884429;29;20265;-61
2023/04/30 00:49:22;;;;;;;7.23;6.03;;;13.50;99.90;;;;;;4884708;29;20258;-62
2023/04/30 00:51:48;;;;;;;5.93;5.40;;;13.50;99.90;;;;;;4886984;29;20655;-61
2023/04/30 00:54:14;;;;;;;5.70;5.10;;;13.40;99.90;;;;;;4886764;29;20179;-62
2023/04/30 00:56:40;;;;;;;6.40;5.70;;;13.40;99.90;;;;;;4889079;29;20282;-61
2023/04/30 00:59:06;;;;;;;6.87;6.20;;;13.30;99.90;;;;;;4883830;29;20306;-61
2023/04/30 01:01:32;;;;;;;6.70;6.10;;;13.20;99.90;;;;;;4884208;29;20491;-61
2023/04/30 01:03:59;;;;;;;6.40;5.80;;;13.40;99.90;;;;;;4887524;29;20270;-61
2023/04/30 01:06:26;;;;;;;6.65;6.00;;;13.30;99.90;;;;;;4886417;29;20191;-61
2023/04/30 01:08:52;;;;;;;7.15;6.32;;;13.30;99.90;;;;;;4885473;29;20233;-61
2023/04/30 01:11:57;;;;;;;6.00;5.40;;;13.10;99.90;;;;;;4888217;29;20688;-61
2023/04/30 01:14:55;;;;;;;7.40;6.55;;;13.40;99.90;;;;;;4884956;29;20567;-61
2023/04/30 01:17:36;;;;;;;7.45;6.75;;;13.20;99.90;;;;;;4886007;29;20697;-61
2023/04/30 01:20:03;;;;;;;8.02;6.97;;;13.30;99.90;;;;;;4882999;29;20203;-61
2023/04/30 01:22:34;;;;;;;7.10;6.40;;;13.20;99.90;;;;;;4884406;29;20217;-62
2023/04/30 01:25:30;;;;;;;7.30;6.60;;;13.10;99.90;;;;;;4884075;29;20221;-61
2023/04/30 01:28:04;;;;;;;7.40;6.68;;;13.20;99.90;;;;;;4884706;29;20279;-61
2023/04/30 01:30:31;;;;;;;6.65;6.05;;;13.20;99.90;;;;;;4883511;29;20291;-61
2023/04/30 01:32:57;;;;;;;8.20;6.95;;;13.40;99.90;;;;;;4882200;29;20576;-61
2023/04/30 01:35:59;;;;;;;6.73;6.13;;;13.00;99.90;;;;;;4886933;29;20402;-62
2023/04/30 01:38:25;;;;;;;8.00;7.20;;;;;;;;;;4860389;29;20234;-61
2023/04/30 01:41:13;;;;;;;7.30;6.63;;;13.50;99.90;;;;;;4883805;29;20199;-61
2023/04/30 01:44:04;;;;;;;7.60;6.90;;;13.30;99.90;;;;;;4883537;29;20458;-63
2023/04/30 01:46:30;;;;;;;6.55;5.95;;;13.10;99.90;;;;;;4888209;29;20199;-62
2023/04/30 01:49:14;;;;;;;7.93;7.23;;;13.30;99.90;;;;;;4890467;29;20752;-61
2023/04/30 01:51:42;;;;;;;8.50;7.00;;;13.10;99.90;;;;;;4887467;29;20479;-61
2023/04/30 01:54:20;;;;;;;7.70;7.00;;;13.10;99.90;;;;;;4884477;29;20717;-61
2023/04/30 01:57:20;;;;;;;9.18;8.30;;;13.00;99.90;;;;;;4888699;29;20664;-61
2023/04/30 01:59:46;;;;;;;8.38;7.57;;;13.30;99.90;;;;;;4883104;29;20221;-61
2023/04/30 02:02:11;;;;;;;10.38;9.27;;;13.00;99.90;;;;;;4886282;29;20262;-61
2023/04/30 02:04:37;;;;;;;9.10;8.20;;;13.20;99.90;;;;;;4891317;29;20266;-61
2023/04/30 02:07:02;;;;;;;8.70;7.80;;;12.90;99.90;;;;;;4890994;29;20223;-61
2023/04/30 02:09:28;;;;;;;9.30;7.70;;;13.00;99.90;;;;;;4886524;29;20249;-61
2023/04/30 02:11:54;;;;;;;8.30;7.40;;;13.20;99.90;;;;;;4889832;29;20227;-61
2023/04/30 02:14:19;;;;;;;7.47;6.67;;;12.80;99.90;;;;;;4890308;29;20195;-61
2023/04/30 02:16:45;;;;;;;8.87;7.80;;;12.80;99.90;;;;;;4889839;29;20573;-61
2023/04/30 02:19:11;;;;;;;9.10;8.20;;;12.90;99.90;;;;;;4890965;29;20274;-61
2023/04/30 02:21:36;;;;;;;8.70;7.90;;;12.80;99.90;;;;;;4888717;29;20191;-61
2023/04/30 02:24:02;;;;;;;9.03;8.13;;;12.90;99.90;;;;;;4886710;29;20191;-61
2023/04/30 02:26:28;;;;;;;9.33;8.37;;;13.00;99.90;;;;;;4892453;29;20684;-61
2023/04/30 02:28:53;;;;;;;10.83;8.50;;;12.90;99.90;;;;;;4887739;29;20706;-61
2023/04/30 02:31:19;;;;;;;7.90;7.10;;;13.10;99.90;;;;;;4890174;29;20194;-61
2023/04/30 02:33:44;;;;;;;9.23;8.43;;;13.00;99.90;;;;;;4886273;29;20198;-61
2023/04/30 02:36:10;;;;;;;8.40;7.60;;;12.90;99.90;;;;;;4891242;29;20222;-61
2023/04/30 02:38:35;;;;;;;10.43;9.43;;;12.90;99.90;;;;;;4887596;29;20314;-61
2023/04/30 02:41:02;;;;;;;7.77;6.97;;;12.90;99.90;;;;;;4889057;29;20188;-62
2023/04/30 02:43:27;;;;;;;8.68;7.78;;;13.00;99.90;;;;;;4891589;29;20186;-62
2023/04/30 02:45:53;;;;;;;9.67;8.63;;;13.10;99.90;;;;;;4887924;29;20204;-62
2023/04/30 02:48:18;;;;;;;9.77;8.80;;;12.80;99.90;;;;;;4890022;29;20674;-62
2023/04/30 02:50:44;;;;;;;10.70;9.13;;;12.80;99.90;;;;;;4890330;29;20215;-61
2023/04/30 02:53:10;;;;;;;9.73;8.53;;;12.80;99.90;;;;;;4892170;29;20201;-62
2023/04/30 02:55:35;;;;;;;10.50;8.50;;;12.60;99.90;;;;;;4891554;29;20450;-62
2023/04/30 02:58:01;;;;;;;9.80;8.70;;;12.40;99.90;;;;;;4892659;29;20232;-62
2023/04/30 03:00:26;;;;;;;9.40;8.50;;;12.80;99.90;;;;;;4887280;29;20778;-62
2023/04/30 03:02:52;;;;;;;11.43;9.27;;;12.70;99.90;;;;;;4889947;29;20234;-62
2023/04/30 03:05:18;;;;;;;10.07;9.03;;;12.60;99.90;;;;;;4887189;29;20194;-62
2023/04/30 03:07:43;;;;;;;9.30;8.40;;;12.90;99.90;;;;;;4888146;29;20191;-62
2023/04/30 03:10:09;;;;;;;10.23;9.00;;;12.60;99.90;;;;;;4885270;29;20563;-62
2023/04/30 03:12:35;;;;;;;11.32;8.63;;;12.60;99.90;;;;;;4887846;29;20202;-61
2023/04/30 03:15:00;;;;;;;9.00;8.10;;;12.50;99.90;;;;;;4889371;29;20195;-62
2023/04/30 03:17:26;;;;;;;11.10;8.57;;;12.30;99.90;;;;;;4890555;29;20306;-62
2023/04/30 03:19:52;;;;;;;9.40;8.47;;;12.40;99.90;;;;;;4883536;29;20677;-62
2023/04/30 03:22:18;;;;;;;9.40;8.50;;;12.70;99.90;;;;;;4886727;29;20228;-61
2023/04/30 03:24:44;;;;;;;9.75;8.85;;;12.60;99.90;;;;;;4889045;29;20198;-61
2023/04/30 03:27:10;;;;;;;10.70;9.70;;;12.90;99.90;;;;;;4885607;29;20203;-62
2023/04/30 03:29:35;;;;;;;10.17;8.97;;;12.70;99.90;;;;;;4891882;29;20229;-61
2023/04/30 03:32:01;;;;;;;9.73;8.80;;;12.60;99.90;;;;;;4887355;29;20772;-62
2023/04/30 03:34:26;;;;;;;10.03;9.03;;;12.80;99.90;;;;;;4889107;29;20191;-62
2023/04/30 03:36:52;;;;;;;10.30;8.70;;;12.70;99.90;;;;;;4887362;29;20239;-60
2023/04/30 03:39:18;;;;;;;9.47;8.47;;;12.60;99.90;;;;;;4887889;29;20687;-60
2023/04/30 03:41:43;;;;;;;9.00;8.10;;;12.60;99.90;;;;;;4887156;29;20246;-60
2023/04/30 03:44:14;;;;;;;9.83;8.83;;;12.70;99.90;;;;;;4886327;29;20309;-60
2023/04/30 03:46:43;;;;;;;11.43;8.68;;;12.70;99.90;;;;;;4885107;29;20195;-62
2023/04/30 03:49:09;;;;;;;10.75;9.75;;;12.60;99.90;;;;;;4888511;29;20260;-62
2023/04/30 03:51:38;;;;;;;10.43;8.65;;;12.70;99.90;;;;;;4889966;29;20310;-62
2023/04/30 03:54:05;;;;;;;11.20;8.70;;;12.50;99.90;;;;;;4884704;29;20278;-62
2023/04/30 03:56:31;;;;;;;10.30;9.30;;;12.80;99.90;;;;;;4888717;29;20202;-62
2023/04/30 03:58:57;;;;;;;9.52;8.52;;;12.60;99.90;;;;;;4887923;29;20225;-62
2023/04/30 04:01:23;;;;;;;10.07;8.93;;;12.70;99.90;;;;;;4888579;29;20274;-62
2023/04/30 04:03:49;;;;;;;10.63;9.53;;;12.70;99.90;;;;;;4884495;29;20459;-62
2023/04/30 04:06:14;;;;;;;9.50;8.60;;;12.70;99.90;;;;;;4890340;29;20232;-62
2023/04/30 04:08:42;;;;;;;10.13;9.10;;;12.60;99.90;;;;;;4889881;29;20198;-62
2023/04/30 04:11:09;;;;;;;9.23;8.32;;;12.60;99.90;;;;;;4886134;29;20187;-62
2023/04/30 04:13:34;;;;;;;10.32;9.27;;;12.70;99.90;;;;;;4887006;29;20186;-62
2023/04/30 04:16:00;;;;;;;12.07;9.17;;;12.40;99.90;;;;;;4885001;29;20609;-62
2023/04/30 04:18:25;;;;;;;9.40;8.43;;;12.60;99.90;;;;;;4891271;29;20211;-62
2023/04/30 04:20:51;;;;;;;9.60;8.57;;;12.70;99.90;;;;;;4886164;29;20192;-62
2023/04/30 04:23:16;;;;;;;10.17;8.90;;;12.50;99.90;;;;;;4889572;29;20187;-62
2023/04/30 04:25:43;;;;;;;9.17;8.27;;;12.50;99.90;;;;;;4887767;29;20201;-62
2023/04/30 04:28:08;;;;;;;10.32;9.23;;;12.30;99.90;;;;;;4884804;29;20191;-62
2023/04/30 04:30:35;;;;;;;10.37;9.27;;;12.40;99.90;;;;;;4881915;29;20219;-62
2023/04/30 04:33:01;;;;;;;10.05;9.05;;;12.70;99.90;;;;;;4888055;29;20281;-62
2023/04/30 04:35:27;;;;;;;9.30;8.40;;;12.60;99.90;;;;;;4884677;29;20603;-62
2023/04/30 04:37:52;;;;;;;11.47;9.40;;;12.50;99.90;;;;;;4887203;29;20206;-62
2023/04/30 04:40:18;;;;;;;10.63;9.53;;;12.50;99.90;;;;;;4889194;29;20633;-61
2023/04/30 04:42:43;;;;;;;10.53;9.30;;;12.60;99.90;;;;;;4885697;29;20187;-62
2023/04/30 04:45:09;;;;;;;9.23;8.37;;;12.30;99.90;;;;;;4885694;29;20285;-62
2023/04/30 04:47:35;;;;;;;12.48;9.10;;;12.50;99.90;;;;;;4889472;29;20715;-63
2023/04/30 04:50:01;;;;;;;10.40;8.80;;;12.80;99.90;;;;;;4888105;29;20228;-62
2023/04/30 04:52:27;;;;;;;9.20;8.30;;;12.60;99.90;;;;;;4888492;29;20191;-64
2023/04/30 04:54:52;;;;;;;8.87;7.87;;;12.40;99.90;;;;;;4886569;29;20584;-61
2023/04/30 04:57:18;;;;;;;9.40;7.73;;;12.60;99.90;;;;;;4882462;29;20198;-62
2023/04/30 04:59:43;;;;;;;10.40;9.37;;;12.60;99.90;;;;;;4884753;29;20207;-61
2023/04/30 05:02:09;;;;;;;10.13;8.83;;;12.70;99.90;;;;;;4881566;29;20889;-62
2023/04/30 05:04:35;;;;;;;8.73;7.80;;;12.60;99.90;;;;;;4886610;29;20183;-61
2023/04/30 05:07:01;;;;;;;9.20;8.03;;;12.80;99.90;;;;;;4885481;29;20190;-61
2023/04/30 05:09:26;;;;;;;10.33;8.87;;;13.00;99.90;;;;;;4885205;29;20207;-63
2023/04/30 05:11:52;;;;;;;9.60;8.60;;;13.00;99.90;;;;;;4890061;29;20191;-64
2023/04/30 05:14:17;;;;;;;9.47;8.33;;;13.00;99.90;;;;;;4886574;29;20681;-64
2023/04/30 05:16:43;;;;;;;10.73;9.70;;;12.80;99.90;;;;;;4888627;29;20283;-63
2023/04/30 05:19:08;;;;;;;11.23;10.13;;;12.80;99.90;;;;;;4881861;29;20242;-62
2023/04/30 05:21:34;;;;;;;9.80;8.80;;;13.10;99.90;;;;;;4884703;29;20239;-64
2023/04/30 05:24:00;;;;;;;10.18;9.10;;;13.30;99.90;;;;;;4879531;29;20581;-65
2023/04/30 05:26:26;;;;;;;10.63;8.10;;;13.30;99.90;;;;;;4881504;29;20237;-65
2023/04/30 05:28:51;;;;;;;9.70;8.80;;;13.30;99.90;;;;;;4879880;29;20234;-63
2023/04/30 05:31:17;;;;;;;10.80;9.53;;;13.50;99.90;;;;;;4882491;29;20199;-63
2023/04/30 05:33:43;;;;;;;9.10;8.20;;;13.70;99.90;;;;;;4884435;29;20199;-64
2023/04/30 05:36:09;;;;;;;9.83;8.83;;;13.50;99.90;;;;;;4885320;29;20199;-62
2023/04/30 05:38:35;;;;;;;9.40;8.50;;;13.40;99.90;;;;;;4887041;29;20222;-66
2023/04/30 05:41:00;;;;;;;9.87;8.97;;;13.40;99.90;;;;;;4892106;29;20279;-63
2023/04/30 05:43:26;;;;;;;9.27;8.40;;;13.40;99.90;;;;;;4889250;29;20266;-63
2023/04/30 05:45:51;;;;;;;8.87;7.97;;;13.50;99.90;;;;;;4889221;29;20271;-65
2023/04/30 05:48:17;;;;;;;9.23;8.33;;;13.50;99.90;;;;;;4887962;29;20218;-62
2023/04/30 05:50:43;;;;;;;8.57;7.67;;;13.50;99.90;;;;;;4888181;29;20215;-62
2023/04/30 05:53:08;;;;;;;9.40;8.40;;;13.80;99.90;;;;;;4888961;29;20200;-62
2023/04/30 05:55:34;;;;;;;9.03;8.13;;;13.90;99.90;;;;;;4889809;29;20670;-62
2023/04/30 05:57:59;;;;;;;9.40;8.40;;;14.00;99.90;;;;;;4884802;29;20215;-62
2023/04/30 06:00:25;;;;;;;9.67;8.67;;;14.00;99.90;;;;;;4886943;29;20681;-62
2023/04/30 06:02:51;;;;;;;9.33;8.53;;;14.10;99.90;;;;;;4889734;29;20294;-60
2023/04/30 06:05:17;;;;;;;9.30;8.30;;;14.20;99.90;;;;;;4881420;29;20195;-59
2023/04/30 06:07:43;;;;;;;11.13;9.03;;;14.40;99.90;;;;;;4887624;29;20191;-62
2023/04/30 06:10:09;;;;;;;8.97;8.10;;;14.60;99.90;;;;;;4889560;29;20218;-60
2023/04/30 06:12:35;;;;;;;9.40;8.33;;;14.70;99.90;;;;;;4883982;29;20190;-60
2023/04/30 06:15:00;;;;;;;9.37;8.47;;;14.80;99.90;;;;;;4885291;29;20587;-60
2023/04/30 06:17:26;;;;;;;8.63;7.30;;;14.80;99.90;;;;;;4885344;29;20487;-60
2023/04/30 06:19:51;;;;;;;9.10;8.23;;;14.80;99.90;;;;;;4884403;29;20761;-62
2023/04/30 06:22:17;;;;;;;8.60;7.80;;;14.80;99.90;;;;;;4884064;29;20186;-60
2023/04/30 06:24:42;;;;;;;9.53;8.63;;;14.90;99.90;;;;;;4888833;29;20199;-60
2023/04/30 06:27:08;;;;;;;8.57;7.77;;;14.80;99.90;;;;;;4886708;29;20179;-61
2023/04/30 06:29:34;;;;;;;9.40;8.50;;;15.20;99.90;;;;;;4883275;29;20239;-60
2023/04/30 06:31:59;;;;;;;9.27;8.40;;;14.90;99.90;;;;;;4887468;29;20176;-62
2023/04/30 06:34:25;;;;;;;9.33;8.43;;;15.20;99.90;;;;;;4884642;29;20214;-62
2023/04/30 06:36:51;;;;;;;8.60;7.90;;;15.30;99.90;;;;;;4882772;29;20240;-62
2023/04/30 06:39:16;;;;;;;8.73;7.83;;;15.30;99.70;;;;;;4887640;29;20474;-62
2023/04/30 06:41:42;;;;;;;8.33;7.63;;;15.30;99.90;;;;;;4886726;29;20186;-62
2023/04/30 06:44:08;;;;;;;9.00;8.20;;;15.60;99.40;;;;;;4887060;29;20188;-62
2023/04/30 06:46:34;;;;;;;9.10;8.20;;;15.70;98.90;;;;;;4884831;29;20205;-61
2023/04/30 06:48:59;;;;;;;8.80;8.00;;;15.50;98.80;;;;;;4884104;29;20543;-63
2023/04/30 06:51:25;;;;;;;7.73;7.03;;;15.60;98.60;;;;;;4885374;29;20199;-63
2023/04/30 06:53:51;;;;;;;8.37;7.57;;;15.50;98.50;;;;;;4886593;29;20677;-63
2023/04/30 06:56:17;;;;;;;8.90;8.10;;;16.00;97.70;;;;;;4881811;29;20247;-63
2023/04/30 06:58:42;;;;;;;8.60;7.70;;;16.30;96.80;;;;;;4884617;29;20491;-63
2023/04/30 07:01:08;;;;;;;8.73;7.93;;;17.10;96.60;;;;;;4881029;29;20450;-64
2023/04/30 07:03:34;;;;;;;7.33;6.63;;;17.80;94.80;;;;;;4883761;29;20535;-63
2023/04/30 07:06:00;;;;;;;7.47;6.78;;;18.70;93.30;;;;;;4883451;29;20193;-63
2023/04/30 07:08:25;;;;;;;7.87;7.07;;;19.20;91.60;;;;;;4889349;29;20195;-63
2023/04/30 07:10:51;;;;;;;7.40;6.80;;;19.60;90.30;;;;;;4883737;29;20215;-63
2023/04/30 07:13:17;;;;;;;9.40;6.97;;;20.50;88.70;;;;;;4888441;29;20676;-67
2023/04/30 07:15:43;;;;;;;7.40;6.80;;;21.00;85.50;;;;;;4885155;29;20223;-64
2023/04/30 07:18:08;;;;;;;7.83;7.13;;;21.20;85.20;;;;;;4885692;29;20989;-67
2023/04/30 07:20:34;;;;;;;7.70;7.07;;;21.20;83.90;;;;;;4885579;29;20482;-66
2023/04/30 07:23:00;;;;;;;7.77;7.17;;;21.00;83.80;;;;;;4883264;29;20459;-64
2023/04/30 07:25:25;;;;;;;7.53;6.73;;;20.60;83.80;;;;;;4888131;29;20207;-64
2023/04/30 07:27:52;;;;;;;5.77;5.13;;;20.50;86.70;;;;;;4885109;29;20205;-64
2023/04/30 07:30:18;;;;;;;6.93;6.32;;;20.40;87.90;;;;;;4883569;29;20217;-64
2023/04/30 07:32:43;;;;;;;6.00;5.50;;;20.90;85.30;;;;;;4886837;29;20194;-66
2023/04/30 07:35:09;;;;;;;7.10;6.50;;;20.90;84.20;;;;;;4884556;29;20187;-65
2023/04/30 07:37:35;;;;;;;7.37;6.77;;;20.50;83.70;;;;;;4889272;29;20595;-69
2023/04/30 07:40:00;;;;;;;7.17;6.57;;;20.50;82.80;;;;;;4880565;29;20481;-67
2023/04/30 07:42:26;;;;;;;7.50;6.90;;;20.40;83.40;;;;;;4883326;29;20236;-67
2023/04/30 07:44:52;;;;;;;7.17;6.57;;;20.70;83.00;;;;;;4880083;29;20187;-70
2023/04/30 07:47:18;;;;;;;7.40;6.80;;;20.60;81.60;;;;;;4890027;29;20265;-66
2023/04/30 07:49:48;;;;;;;7.53;6.82;;;20.70;80.10;;;;;;4901372;29;20226;-65
2023/04/30 07:52:13;;;;;;;7.17;6.57;;;20.90;81.20;;;;;;4881798;29;20447;-65
2023/04/30 07:54:39;;;;;;;6.40;5.80;;;21.30;79.30;;;;;;4882473;29;21118;-74
2023/04/30 07:57:05;;;;;;;7.23;6.60;;;21.10;79.90;;;;;;4882593;29;20684;-67
2023/04/30 07:59:31;;;;;;;6.37;5.77;;;21.80;78.50;;;;;;4886624;29;20214;-67
2023/04/30 08:01:57;;;;;;;6.80;6.20;;;23.20;73.70;;;;;;4881128;29;20442;-68
2023/04/30 08:04:22;;;;;;;7.33;6.73;;;23.70;70.80;;;;;;4887142;29;20460;-69
2023/04/30 08:06:48;;;;;;;6.40;5.90;;;23.60;70.40;;;;;;4890841;29;20450;-71
2023/04/30 08:09:14;;;;;;;6.73;6.23;;;24.30;67.70;;;;;;4890720;29;20369;-66
2023/04/30 08:11:40;;;;;;;5.30;4.90;;;24.90;64.90;;;;;;4886066;29;20232;-67
2023/04/30 08:14:05;;;;;;;6.60;6.10;;;24.50;64.10;;;;;;4885408;29;20542;-66
2023/04/30 08:16:31;;;;;;;7.43;6.00;;;24.90;64.20;;;;;;4882625;29;20190;-67
2023/04/30 08:18:58;;;;;;;6.23;5.70;;;25.10;61.00;;;;;;4886812;29;20230;-66
2023/04/30 08:21:24;;;;;;;6.03;5.53;;;24.50;61.50;;;;;;4886720;29;20199;-68
2023/04/30 08:23:49;;;;;;;6.10;5.60;;;24.50;61.40;;;;;;4886804;29;20516;-70
2023/04/30 08:26:15;;;;;;;6.80;6.20;;;23.00;62.70;;;;;;4884315;29;20459;-65
2023/04/30 08:28:41;;;;;;;5.17;4.77;;;22.40;65.40;;;;;;4899680;29;20315;-67
2023/04/30 08:31:07;;;;;;;5.57;5.17;;;21.80;66.90;;;;;;4882930;29;20281;-64
2023/04/30 08:33:32;;;;;;;5.33;4.73;;;20.60;68.50;;;;;;4887594;29;20533;-69
2023/04/30 08:35:58;;;;;;;4.97;4.57;;;19.90;71.10;;;;;;4886778;29;20506;-67
2023/04/30 08:38:24;;;;;;;5.83;5.23;;;19.50;73.70;;;;;;4889029;29;20245;-67
2023/04/30 08:41:10;;;;;;;5.47;4.97;;;19.10;75.20;;;;;;4886263;29;20482;-64
2023/04/30 08:43:36;;;;;;;4.80;4.40;;;19.00;76.10;;;;;;4882990;29;20195;-63
2023/04/30 08:46:03;;;;;;;5.63;5.17;;;19.00;77.30;;;;;;4883999;29;20602;-64
2023/04/30 08:48:30;;;;;;;4.93;4.53;;;19.00;76.80;;;;;;4884594;29;21328;-62
2023/04/30 08:50:58;;;;;;;4.53;3.90;;;18.40;76.40;;;;;;4889393;29;20207;-63
2023/04/30 08:53:23;;;;;;;4.35;4.05;;;18.60;76.20;;;;;;4885497;29;20769;-63
2023/04/30 08:55:49;;;;;;;3.93;3.63;;;18.40;74.30;;;;;;4883284;29;20199;-70
2023/04/30 08:58:14;;;;;;;3.57;3.27;;;18.80;72.00;;;;;;4883488;29;20210;-70
2023/04/30 09:00:40;;;;;;;3.50;3.30;;;19.30;70.90;;;;;;4885936;29;20266;-67
2023/04/30 09:03:07;;;;;;;3.83;3.53;;;20.30;67.60;;;;;;4886893;29;20555;-66
2023/04/30 09:05:33;;;;;;;3.85;3.50;;;20.10;67.00;;;;;;4883721;29;20456;-68
2023/04/30 09:07:58;;;;;;;5.03;4.00;;;19.60;67.90;;;;;;4882531;29;20532;-68
2023/04/30 09:10:24;;;;;;;4.20;3.90;;;19.40;68.90;;;;;;4889686;29;20462;-67
2023/04/30 09:13:00;;;;;;;3.90;3.60;;;19.10;70.40;;;;;;4889694;29;20198;-69
2023/04/30 09:15:27;;;;;;;3.63;3.33;;;19.20;70.90;;;;;;4886906;29;20253;-67
2023/04/30 09:18:16;;;;;;;4.40;4.00;;;19.40;70.40;;;;;;4891000;29;20210;-67
2023/04/30 09:20:56;;;;;;;4.75;4.35;;;19.40;70.10;;;;;;4891924;29;20196;-67
2023/04/30 09:23:22;;;;;;;4.25;3.95;;;19.50;70.50;;;;;;4888588;29;20183;-70
2023/04/30 09:25:48;;;;;;;4.43;4.03;;;19.40;71.10;;;;;;4884223;29;20587;-68
2023/04/30 09:28:13;;;;;;;4.10;3.80;;;19.20;70.60;;;;;;4886771;29;20197;-69
2023/04/30 09:30:40;;;;;;;4.33;4.03;;;18.80;71.60;;;;;;4891350;29;20250;-67
2023/04/30 09:33:06;;;;;;;4.30;3.95;;;18.60;72.90;;;;;;4889509;29;20226;-67
2023/04/30 09:35:34;;;;;;;3.97;3.67;;;18.40;72.60;;;;;;4887881;29;20219;-67
2023/04/30 09:38:01;;;;;;;3.30;3.10;;;18.30;72.00;;;;;;4890475;29;20561;-67
2023/04/30 09:40:59;;;;;;;4.15;3.58;;;18.30;72.00;;;;;;4891461;29;20215;-68
2023/04/30 09:43:26;;;;;;;3.55;3.25;;;18.20;72.30;;;;;;4883355;29;20200;-68
2023/04/30 09:45:51;;;;;;;3.42;3.13;;;18.20;71.50;;;;;;4890406;29;20316;-68
2023/04/30 09:48:23;;;;;;;3.47;3.27;;;18.50;70.50;;;;;;4892666;29;20214;-68
2023/04/30 09:50:50;;;;;;;3.35;3.08;;;18.40;70.90;;;;;;4891807;29;20876;-69
2023/04/30 09:53:16;;;;;;;3.15;2.95;;;18.40;70.00;;;;;;4884933;29;20215;-68
2023/04/30 09:55:51;;;;;;;3.65;3.35;;;18.40;70.20;;;;;;4887997;29;20659;-68
2023/04/30 09:58:18;;;;;;;2.85;2.55;;;18.30;70.70;;;;;;4884601;29;20241;-68
2023/04/30 10:00:49;;;;;;;3.30;3.10;;;18.00;70.40;;;;;;4886178;29;20234;-67
2023/04/30 10:03:15;;;;;;;3.33;3.03;;;18.30;70.50;;;;;;4890611;29;20198;-69
2023/04/30 10:05:46;;;;;;;3.03;2.75;;;18.20;71.10;;;;;;4893776;29;20234;-70
2023/04/30 10:08:40;;;;;;;3.45;3.03;;;18.00;71.00;;;;;;4892458;29;20196;-63
2023/04/30 10:11:07;;;;;;;3.17;2.90;;;17.70;70.90;;;;;;4898604;29;20195;-71
2023/04/30 10:13:51;;;;;;;3.17;2.92;;;18.00;70.70;;;;;;4891169;29;20192;-70
2023/04/30 10:16:50;;;;;;;2.90;2.70;;;18.20;70.80;;;;;;4891445;29;20195;-71
2023/04/30 10:19:33;;;;;;;3.03;2.83;;;18.10;69.70;;;;;;4890539;29;20318;-71
2023/04/30 10:22:00;;;;;;;3.28;3.05;;;18.20;69.10;;;;;;4891652;29;20672;-65
2023/04/30 10:24:26;;;;;;;3.50;3.22;;;18.10;68.10;;;;;;4884002;29;20290;-70
2023/04/30 10:26:52;;;;;;;3.10;2.80;;;18.40;70.00;;;;;;4883006;29;20201;-70
2023/04/30 10:29:18;;;;;;;3.50;3.20;;;18.60;67.70;;;;;;4887075;29;20199;-64
2023/04/30 10:31:49;;;;;;;2.77;2.57;;;18.90;66.70;;;;;;4884595;29;20475;-67
2023/04/30 10:34:50;;;;;;;3.10;2.90;;;19.30;67.00;;;;;;4884394;29;20187;-69
2023/04/30 10:37:38;;;;;;;3.50;2.90;;;18.90;67.20;;;;;;4871695;29;20182;-64
2023/04/30 10:40:07;;;;;;;3.58;3.28;;;18.70;66.50;;;;;;4887003;29;20254;-67
2023/04/30 10:42:34;;;;;;;3.47;3.17;;;18.40;66.80;;;;;;4885581;29;20183;-70
2023/04/30 10:45:04;;;;;;;4.53;3.67;;;18.20;68.40;;;;;;4883889;29;20634;-68
2023/04/30 10:47:30;;;;;;;3.15;2.85;;;18.10;68.70;;;;;;4886957;29;20195;-69
2023/04/30 10:50:08;;;;;;;3.33;3.05;;;18.10;68.60;;;;;;4885216;29;20211;-69
2023/04/30 10:52:36;;;;;;;4.05;3.65;;;18.10;69.80;;;;;;4887689;29;20578;-69
2023/04/30 10:55:06;;;;;;;4.18;3.50;;;18.20;70.20;;;;;;4886480;29;20195;-66
2023/04/30 10:57:43;;;;;;;4.10;3.80;;;18.20;69.80;;;;;;4891187;29;20253;-67
2023/04/30 11:00:09;;;;;;;3.97;3.65;;;18.80;70.40;;;;;;4891231;29;20239;-68
2023/04/30 11:02:39;;;;;;;3.90;3.60;;;18.30;69.30;;;;;;4889394;29;20721;-68
2023/04/30 11:05:05;;;;;;;4.50;4.20;;;18.20;69.90;;;;;;4890356;29;20510;-69
2023/04/30 11:07:30;;;;;;;4.00;3.70;;;18.20;70.00;;;;;;4884147;29;20197;-68
2023/04/30 11:09:57;;;;;;;3.97;3.67;;;18.80;71.00;;;;;;4886593;29;20615;-67
2023/04/30 11:12:28;;;;;;;4.10;3.80;;;18.30;70.20;;;;;;4891052;29;20199;-66
2023/04/30 11:15:00;;;;;;;4.05;3.75;;;18.50;70.50;;;;;;4890200;29;20189;-67
2023/04/30 11:17:27;;;;;;;4.55;4.15;;;18.60;69.40;;;;;;4890034;29;20275;-67
2023/04/30 11:19:57;;;;;;;4.35;3.95;;;18.60;69.40;;;;;;4892201;29;20242;-67
2023/04/30 11:22:24;;;;;;;3.80;3.50;;;18.80;69.60;;;;;;4888981;29;20178;-64
2023/04/30 11:24:58;;;;;;;4.03;3.60;;;18.90;68.90;;;;;;4886064;29;20945;-64
2023/04/30 11:27:26;;;;;;;5.18;3.60;;;19.00;69.10;;;;;;4885743;29;20250;-66
2023/04/30 11:29:52;;;;;;;3.78;3.40;;;18.80;67.60;;;;;;4889810;29;20217;-68
2023/04/30 11:32:19;;;;;;;3.90;3.70;;;18.80;67.40;;;;;;4885549;29;20197;-68
2023/04/30 11:34:45;;;;;;;3.85;3.55;;;18.80;67.70;;;;;;4887388;29;20657;-69
2023/04/30 11:37:13;;;;;;;3.80;3.50;;;18.60;67.40;;;;;;4891632;29;20195;-71
2023/04/30 11:39:40;;;;;;;4.13;3.78;;;18.30;68.20;;;;;;4887813;29;20199;-68
2023/04/30 11:42:07;;;;;;;3.90;3.60;;;18.20;69.20;;;;;;4888772;29;20179;-71
2023/04/30 11:44:32;;;;;;;4.70;4.07;;;18.10;69.70;;;;;;4884115;29;20559;-65
2023/04/30 11:46:59;;;;;;;4.43;4.13;;;18.30;70.30;;;;;;4890499;29;20211;-68
2023/04/30 11:49:25;;;;;;;4.00;3.60;;;18.50;70.30;;;;;;4887809;29;20221;-65
2023/04/30 11:51:52;;;;;;;5.43;3.60;;;18.90;70.10;;;;;;4887229;29;20205;-65
2023/04/30 11:54:24;;;;;;;4.10;3.78;;;19.10;69.80;;;;;;5059328;27;20545;-67
2023/04/30 11:56:50;;;;;;;4.03;3.63;;;18.80;68.00;;;;;;5042831;28;20173;-70
2023/04/30 11:59:16;;;;;;;4.50;3.47;;;18.60;68.80;;;;;;5046112;28;20204;-67
2023/04/30 12:01:42;;;;;;;3.60;3.30;;;18.60;68.10;;;;;;5042627;28;20224;-66
2023/04/30 12:04:08;;;;;;;3.80;3.50;;;18.60;69.10;;;;;;5045086;28;20174;-66
2023/04/30 12:06:34;;;;;;;3.40;3.10;;;18.90;68.70;;;;;;5038623;28;20582;-67
2023/04/30 12:09:07;;;;;;;3.35;3.03;;;18.90;66.80;;;;;;5043738;28;20456;-66
2023/04/30 12:11:34;;;;;;;3.80;3.53;;;19.00;67.00;;;;;;5044210;28;20323;-67
2023/04/30 12:14:02;;;;;;;3.45;3.15;;;19.00;65.70;;;;;;5042471;28;20213;-67
2023/04/30 12:16:50;;;;;;;3.28;3.00;;;19.10;66.40;;;;;;5038624;28;20281;-66
2023/04/30 12:19:17;;;;;;;4.10;3.20;;;19.10;66.70;;;;;;5043479;28;20209;-66
2023/04/30 12:21:47;;;;;;;4.40;3.20;;;19.10;65.40;;;;;;5041557;28;20170;-66
2023/04/30 12:24:15;;;;;;;3.40;2.80;;;18.80;65.30;;;;;;5041982;28;20655;-68
2023/04/30 12:26:41;;;;;;;3.95;2.67;;;19.20;65.70;;;;;;5041327;28;20182;-69
2023/04/30 12:29:09;;;;;;;3.15;2.85;;;19.40;65.20;;;;;;5045878;28;20243;-68
2023/04/30 12:31:36;;;;;;;3.10;2.80;;;19.40;65.70;;;;;;5040925;28;20860;-66
2023/04/30 12:34:04;;;;;;;3.85;3.47;;;19.20;65.40;;;;;;5037564;28;20328;-67
2023/04/30 12:36:31;;;;;;;3.67;3.22;;;19.00;66.50;;;;;;5041989;28;20187;-67
2023/04/30 12:39:11;;;;;;;3.83;3.53;;;18.80;67.30;;;;;;5043594;28;20623;-66
2023/04/30 12:41:59;;;;;;;3.97;3.10;;;18.70;67.50;;;;;;5044051;28;20289;-66
2023/04/30 12:44:27;;;;;;;3.20;2.90;;;18.70;68.00;;;;;;5043383;28;20217;-66
2023/04/30 12:46:57;;;;;;;3.75;3.55;;;18.80;68.10;;;;;;5038174;28;20185;-68
2023/04/30 12:49:32;;;;;;;3.45;3.25;;;18.70;67.70;;;;;;5041505;28;20626;-68